createdAt,value
2023-04-22T00:00:24.029Z,64.28
2023-04-22T00:01:25.658Z,64.45
2023-04-22T00:02:27.578Z,64.92
2023-04-22T00:03:30.121Z,65.71
2023-04-22T00:04:31.996Z,66.56
2023-04-22T00:05:34.206Z,66.74
2023-04-22T00:06:36.193Z,66.74
2023-04-22T00:07:37.706Z,66.33
2023-04-22T00:08:39.285Z,66.42
2023-04-22T00:09:41.841Z,66.65
2023-04-22T00:10:43.385Z,66.64
2023-04-22T00:11:44.956Z,66.07
2023-04-22T00:12:46.617Z,65.66
2023-04-22T00:13:48.136Z,65.68
2023-04-22T00:14:49.695Z,64.87
2023-04-22T00:15:51.667Z,65.37
2023-04-22T00:16:53.289Z,65.08
2023-04-22T00:17:54.983Z,64.64
2023-04-22T00:18:56.569Z,64.12
2023-04-22T00:19:58.144Z,64.31
2023-04-22T00:20:59.672Z,64.73
2023-04-22T00:22:01.342Z,64.82
2023-04-22T00:23:02.972Z,65.53
2023-04-22T00:24:04.705Z,65.78
2023-04-22T00:25:06.977Z,65.43
2023-04-22T00:26:08.531Z,66.26
2023-04-22T00:27:10.149Z,66.19
2023-04-22T00:28:11.686Z,66.69
2023-04-22T00:29:13.221Z,66.37
2023-04-22T00:30:15.149Z,66.14
2023-04-22T00:31:16.744Z,66.24
2023-04-22T00:32:18.756Z,66.52
2023-04-22T00:33:20.519Z,66.46
2023-04-22T00:34:22.094Z,66.25
2023-04-22T00:35:23.854Z,67.19
2023-04-22T00:36:26.130Z,67.41
2023-04-22T00:37:28.206Z,67.52
2023-04-22T00:38:30.551Z,66.69
2023-04-22T00:39:32.064Z,66.62
2023-04-22T00:40:33.591Z,66.33
2023-04-22T00:41:35.746Z,66.58
2023-04-22T00:42:37.607Z,66.20
2023-04-22T00:43:39.134Z,66.58
2023-04-22T00:44:41.092Z,67.65
2023-04-22T00:45:43.279Z,69.32
2023-04-22T00:46:45.807Z,70.79
2023-04-22T00:47:48.342Z,70.48
2023-04-22T00:48:50.762Z,71.54
2023-04-22T00:49:53.945Z,71.00
2023-04-22T00:50:55.502Z,71.85
2023-04-22T00:51:57.035Z,72.46
2023-04-22T00:52:58.585Z,72.06
2023-04-22T00:54:02.005Z,72.15
2023-04-22T00:55:04.586Z,72.04
2023-04-22T00:56:06.395Z,71.82
2023-04-22T00:57:07.992Z,72.27
2023-04-22T00:58:10.535Z,72.94
2023-04-22T00:59:12.638Z,73.37
2023-04-22T01:00:14.421Z,73.35
2023-04-22T01:01:16.534Z,72.38
2023-04-22T01:02:19.289Z,72.15
2023-04-22T01:03:22.346Z,71.82
2023-04-22T01:04:24.591Z,71.29
2023-04-22T01:05:28.392Z,71.49
2023-04-22T01:06:32.514Z,70.46
2023-04-22T01:07:34.389Z,70.38
2023-04-22T01:08:36.047Z,69.70
2023-04-22T01:09:40.067Z,69.30
2023-04-22T01:10:42.508Z,69.40
2023-04-22T01:11:44.852Z,69.72
2023-04-22T01:12:46.393Z,69.69
2023-04-22T01:13:47.980Z,70.38
2023-04-22T01:14:49.825Z,70.32
2023-04-22T01:15:53.237Z,71.42
2023-04-22T01:16:56.021Z,71.12
2023-04-22T01:17:58.297Z,71.75
2023-04-22T01:19:01.038Z,72.36
2023-04-22T01:20:04.434Z,71.65
2023-04-22T01:21:07.302Z,71.62
2023-04-22T01:22:13.073Z,72.72
2023-04-22T01:23:22.029Z,72.28
2023-04-22T01:24:23.753Z,72.33
2023-04-22T01:25:26.384Z,72.04
2023-04-22T01:26:28.184Z,72.09
2023-04-22T01:27:30.157Z,71.96
2023-04-22T01:28:32.275Z,71.83
2023-04-22T01:29:33.913Z,71.75
2023-04-22T01:30:35.821Z,71.57
2023-04-22T01:31:38.468Z,71.81
2023-04-22T01:32:40.951Z,72.08
2023-04-22T01:33:44.242Z,72.08
2023-04-22T01:34:45.796Z,71.66
2023-04-22T01:35:47.421Z,71.09
2023-04-22T01:36:50.430Z,70.86
2023-04-22T01:37:52.034Z,70.78
2023-04-22T01:38:53.845Z,70.74
2023-04-22T01:39:57.141Z,70.23
2023-04-22T01:40:58.826Z,69.82
2023-04-22T01:42:02.138Z,70.28
2023-04-22T01:43:03.829Z,70.28
2023-04-22T01:44:06.121Z,69.50
2023-04-22T01:45:08.224Z,70.04
2023-04-22T01:46:09.919Z,70.08
2023-04-22T01:47:11.595Z,69.83
2023-04-22T01:48:13.177Z,69.46
2023-04-22T01:49:14.779Z,69.62
2023-04-22T01:50:16.374Z,69.76
2023-04-22T01:51:20.849Z,70.38
2023-04-22T01:52:22.790Z,69.84
2023-04-22T01:53:24.814Z,70.23
2023-04-22T01:54:26.445Z,69.58
2023-04-22T01:55:28.027Z,69.56
2023-04-22T01:56:29.748Z,69.65
2023-04-22T01:57:31.301Z,69.82
2023-04-22T01:58:33.630Z,69.66
2023-04-22T01:59:35.167Z,69.71
2023-04-22T02:00:36.721Z,69.69
2023-04-22T02:01:38.295Z,69.63
2023-04-22T02:02:40.377Z,69.33
2023-04-22T02:03:42.093Z,69.19
2023-04-22T02:04:43.758Z,68.84
2023-04-22T02:05:45.415Z,68.91
2023-04-22T02:06:46.979Z,69.02
2023-04-22T02:07:52.620Z,68.79
2023-04-22T02:08:54.172Z,68.34
2023-04-22T02:09:55.775Z,69.46
2023-04-22T02:10:58.401Z,70.90
2023-04-22T02:12:00.002Z,71.11
2023-04-22T02:13:01.620Z,70.79
2023-04-22T02:14:03.191Z,71.07
2023-04-22T02:15:05.692Z,70.98
2023-04-22T02:16:08.292Z,70.44
2023-04-22T02:17:09.951Z,70.98
2023-04-22T02:18:11.784Z,70.60
2023-04-22T02:19:13.369Z,70.97
2023-04-22T02:20:15.349Z,71.19
2023-04-22T02:21:16.921Z,71.15
2023-04-22T02:22:18.634Z,71.00
2023-04-22T02:23:20.552Z,71.22
2023-04-22T02:24:22.142Z,70.63
2023-04-22T02:25:23.719Z,70.88
2023-04-22T02:26:26.027Z,70.97
2023-04-22T02:27:27.618Z,71.03
2023-04-22T02:28:29.296Z,70.87
2023-04-22T02:29:32.195Z,70.74
2023-04-22T02:30:33.837Z,70.88
2023-04-22T02:31:35.641Z,71.21
2023-04-22T02:32:38.882Z,70.89
2023-04-22T02:33:40.531Z,71.56
2023-04-22T02:34:42.047Z,71.21
2023-04-22T02:35:43.604Z,71.67
2023-04-22T02:36:45.247Z,71.54
2023-04-22T02:37:46.785Z,71.41
2023-04-22T02:38:49.368Z,71.03
2023-04-22T02:39:50.905Z,70.56
2023-04-22T02:40:52.405Z,70.61
2023-04-22T02:41:54.620Z,71.00
2023-04-22T02:42:56.695Z,71.78
2023-04-22T02:43:58.297Z,71.56
2023-04-22T02:44:59.961Z,71.30
2023-04-22T02:46:01.496Z,71.17
2023-04-22T02:47:03.900Z,72.74
2023-04-22T02:48:05.729Z,72.75
2023-04-22T02:49:07.281Z,72.50
2023-04-22T02:50:09.295Z,72.25
2023-04-22T02:51:11.636Z,72.79
2023-04-22T02:52:13.269Z,72.75
2023-04-22T02:53:14.792Z,72.59
2023-04-22T02:54:16.358Z,73.09
2023-04-22T02:55:17.956Z,73.00
2023-04-22T02:56:20.626Z,72.28
2023-04-22T02:57:22.300Z,72.22
2023-04-22T02:58:26.199Z,72.46
2023-04-22T02:59:27.755Z,72.47
2023-04-22T03:00:29.308Z,71.72
2023-04-22T03:01:31.216Z,71.71
2023-04-22T03:02:33.152Z,72.37
2023-04-22T03:03:35.062Z,71.45
2023-04-22T03:04:36.926Z,71.23
2023-04-22T03:05:38.552Z,71.53
2023-04-22T03:06:40.098Z,71.53
2023-04-22T03:07:41.763Z,71.08
2023-04-22T03:08:43.346Z,71.13
2023-04-22T03:09:44.985Z,71.40
2023-04-22T03:10:46.621Z,70.58
2023-04-22T03:11:48.225Z,70.85
2023-04-22T03:12:50.137Z,70.62
2023-04-22T03:13:51.713Z,71.08
2023-04-22T03:14:53.267Z,70.59
2023-04-22T03:15:54.784Z,70.59
2023-04-22T03:16:56.706Z,70.92
2023-04-22T03:17:58.354Z,70.53
2023-04-22T03:18:59.960Z,69.77
2023-04-22T03:20:01.662Z,70.44
2023-04-22T03:21:04.007Z,70.43
2023-04-22T03:22:05.560Z,70.56
2023-04-22T03:23:08.008Z,70.12
2023-04-22T03:24:09.582Z,70.58
2023-04-22T03:25:12.179Z,70.76
2023-04-22T03:26:13.845Z,71.27
2023-04-22T03:27:15.556Z,71.33
2023-04-22T03:28:17.077Z,71.92
2023-04-22T03:29:18.687Z,72.54
2023-04-22T03:30:20.421Z,72.90
2023-04-22T03:31:22.052Z,74.22
2023-04-22T03:32:23.854Z,74.14
2023-04-22T03:33:25.746Z,74.39
2023-04-22T03:34:27.345Z,74.26
2023-04-22T03:35:28.932Z,74.51
2023-04-22T03:36:31.126Z,73.63
2023-04-22T03:37:32.676Z,74.08
2023-04-22T03:38:34.185Z,73.42
2023-04-22T03:39:35.718Z,73.80
2023-04-22T03:40:37.295Z,74.14
2023-04-22T03:41:38.822Z,75.01
2023-04-22T03:42:40.388Z,76.11
2023-04-22T03:43:41.905Z,75.60
2023-04-22T03:44:43.526Z,76.05
2023-04-22T03:45:45.384Z,76.69
2023-04-22T03:46:46.988Z,76.54
2023-04-22T03:47:48.981Z,76.34
2023-04-22T03:48:51.188Z,76.17
2023-04-22T03:49:52.716Z,76.32
2023-04-22T03:50:54.298Z,75.60
2023-04-22T03:51:56.023Z,76.76
2023-04-22T03:52:57.594Z,76.31
2023-04-22T03:53:59.154Z,76.67
2023-04-22T03:55:00.690Z,77.01
2023-04-22T03:56:02.256Z,76.85
2023-04-22T03:57:03.893Z,76.87
2023-04-22T03:58:05.440Z,77.02
2023-04-22T03:59:07.081Z,77.42
2023-04-22T04:00:09.038Z,77.76
2023-04-22T04:01:11.456Z,76.56
2023-04-22T04:02:13.057Z,76.62
2023-04-22T04:03:14.900Z,76.91
2023-04-22T04:04:16.679Z,77.36
2023-04-22T04:05:19.049Z,76.76
2023-04-22T04:06:20.741Z,77.04
2023-04-22T04:07:22.269Z,76.96
2023-04-22T04:08:23.840Z,77.94
2023-04-22T04:09:25.355Z,78.42
2023-04-22T04:10:27.376Z,79.18
2023-04-22T04:11:29.122Z,78.54
2023-04-22T04:12:30.736Z,78.98
2023-04-22T04:13:32.541Z,78.36
2023-04-22T04:14:34.212Z,78.62
2023-04-22T04:15:37.296Z,78.96
2023-04-22T04:16:38.931Z,78.63
2023-04-22T04:17:40.478Z,77.81
2023-04-22T04:18:42.198Z,77.57
2023-04-22T04:19:43.754Z,77.70
2023-04-22T04:20:45.360Z,77.44
2023-04-22T04:21:47.087Z,79.26
2023-04-22T04:22:48.667Z,79.31
2023-04-22T04:23:50.368Z,78.34
2023-04-22T04:24:52.490Z,77.56
2023-04-22T04:25:55.623Z,77.61
2023-04-22T04:26:58.111Z,77.25
2023-04-22T04:27:59.623Z,77.75
2023-04-22T04:29:01.913Z,76.91
2023-04-22T04:30:03.975Z,77.54
2023-04-22T04:31:05.690Z,77.11
2023-04-22T04:32:08.568Z,76.49
2023-04-22T04:33:12.230Z,76.33
2023-04-22T04:34:14.073Z,76.53
2023-04-22T04:35:18.451Z,76.69
2023-04-22T04:36:20.835Z,78.67
2023-04-22T04:37:23.472Z,78.68
2023-04-22T04:38:26.265Z,79.71
2023-04-22T04:39:29.461Z,80.31
2023-04-22T04:40:32.144Z,80.85
2023-04-22T04:41:33.902Z,80.84
2023-04-22T04:42:36.944Z,80.70
2023-04-22T04:43:38.775Z,82.80
2023-04-22T04:44:40.354Z,82.74
2023-04-22T04:45:48.408Z,83.56
2023-04-22T04:46:50.845Z,84.14
2023-04-22T04:47:52.982Z,83.46
2023-04-22T04:48:54.680Z,82.80
2023-04-22T04:49:58.573Z,82.96
2023-04-22T04:51:00.142Z,83.56
2023-04-22T04:52:01.918Z,83.19
2023-04-22T04:53:03.668Z,84.04
2023-04-22T04:54:05.254Z,84.75
2023-04-22T04:55:07.017Z,85.04
2023-04-22T04:56:08.585Z,84.59
2023-04-22T04:57:10.438Z,84.46
2023-04-22T04:58:11.974Z,83.58
2023-04-22T04:59:13.506Z,83.56
2023-04-22T05:00:15.409Z,83.82
2023-04-22T05:01:16.968Z,82.74
2023-04-22T05:02:18.747Z,82.87
2023-04-22T05:03:20.674Z,82.28
2023-04-22T05:04:22.473Z,82.98
2023-04-22T05:05:24.122Z,81.78
2023-04-22T05:06:26.595Z,82.41
2023-04-22T05:07:28.150Z,81.88
2023-04-22T05:08:29.686Z,81.02
2023-04-22T05:09:37.128Z,81.43
2023-04-22T05:10:38.914Z,81.88
2023-04-22T05:11:40.529Z,81.43
2023-04-22T05:12:42.093Z,81.81
2023-04-22T05:13:44.027Z,81.42
2023-04-22T05:14:46.590Z,80.55
2023-04-22T05:15:48.470Z,80.33
2023-04-22T05:16:50.245Z,79.75
2023-04-22T05:17:51.903Z,79.08
2023-04-22T05:18:53.426Z,79.83
2023-04-22T05:19:54.939Z,79.59
2023-04-22T05:20:58.912Z,79.63
2023-04-22T05:22:00.474Z,79.79
2023-04-22T05:23:02.119Z,79.80
2023-04-22T05:24:03.890Z,80.41
2023-04-22T05:25:05.821Z,81.23
2023-04-22T05:26:07.346Z,80.94
2023-04-22T05:27:09.348Z,80.26
2023-04-22T05:28:10.948Z,79.48
2023-04-22T05:29:12.457Z,80.10
2023-04-22T05:30:14.122Z,80.25
2023-04-22T05:31:15.805Z,81.03
2023-04-22T05:32:17.622Z,81.27
2023-04-22T05:33:19.294Z,82.37
2023-04-22T05:34:21.048Z,82.50
2023-04-22T05:35:22.689Z,83.15
2023-04-22T05:36:24.266Z,83.42
2023-04-22T05:37:25.858Z,83.00
2023-04-22T05:38:28.170Z,82.92
2023-04-22T05:39:30.058Z,83.17
2023-04-22T05:40:31.635Z,83.20
2023-04-22T05:41:33.223Z,83.97
2023-04-22T05:42:35.039Z,85.03
2023-04-22T05:43:36.678Z,85.71
2023-04-22T05:44:38.220Z,86.38
2023-04-22T05:45:39.855Z,85.00
2023-04-22T05:46:41.600Z,85.04
2023-04-22T05:47:43.495Z,84.37
2023-04-22T05:48:45.135Z,83.37
2023-04-22T05:49:46.661Z,82.76
2023-04-22T05:50:48.267Z,83.30
2023-04-22T05:51:50.638Z,82.70
2023-04-22T05:52:52.192Z,82.14
2023-04-22T05:53:53.779Z,81.38
2023-04-22T05:54:55.355Z,81.37
2023-04-22T05:55:56.964Z,80.17
2023-04-22T05:56:58.745Z,80.02
2023-04-22T05:58:00.524Z,77.77
2023-04-22T05:59:02.157Z,76.62
2023-04-22T06:00:05.190Z,77.08
2023-04-22T06:01:06.812Z,77.78
2023-04-22T06:02:08.646Z,78.01
2023-04-22T06:03:10.491Z,78.61
2023-04-22T06:04:12.740Z,77.68
2023-04-22T06:05:14.526Z,78.38
2023-04-22T06:06:16.422Z,78.18
2023-04-22T06:07:17.939Z,77.29
2023-04-22T06:08:19.651Z,76.70
2023-04-22T06:09:22.341Z,77.00
2023-04-22T06:10:24.163Z,76.59
2023-04-22T06:11:25.933Z,77.14
2023-04-22T06:12:27.580Z,75.87
2023-04-22T06:13:29.167Z,74.90
2023-04-22T06:14:30.910Z,72.74
2023-04-22T06:15:34.400Z,72.52
2023-04-22T06:16:36.000Z,72.91
2023-04-22T06:17:37.607Z,72.42
2023-04-22T06:18:39.195Z,71.15
2023-04-22T06:19:42.085Z,70.61
2023-04-22T06:20:43.807Z,70.90
2023-04-22T06:21:45.376Z,70.55
2023-04-22T06:22:46.913Z,74.22
2023-04-22T06:23:49.208Z,70.20
2023-04-22T06:24:50.791Z,70.57
2023-04-22T06:25:52.394Z,69.80
2023-04-22T06:26:54.038Z,70.04
2023-04-22T06:27:55.721Z,68.53
2023-04-22T06:28:57.593Z,68.50
2023-04-22T06:29:59.210Z,67.30
2023-04-22T06:31:02.321Z,67.99
2023-04-22T06:32:03.915Z,67.77
2023-04-22T06:33:05.499Z,67.70
2023-04-22T06:34:07.082Z,67.91
2023-04-22T06:35:09.120Z,66.94
2023-04-22T06:36:10.864Z,67.18
2023-04-22T06:37:12.479Z,68.45
2023-04-22T06:38:13.990Z,67.40
2023-04-22T06:39:16.028Z,66.94
2023-04-22T06:40:17.594Z,66.52
2023-04-22T06:41:19.161Z,65.18
2023-04-22T06:42:20.838Z,66.53
2023-04-22T06:43:22.353Z,65.85
2023-04-22T06:44:25.461Z,65.46
2023-04-22T06:45:27.014Z,65.32
2023-04-22T06:46:28.651Z,63.72
2023-04-22T06:47:30.475Z,64.79
2023-04-22T06:48:32.109Z,65.21
2023-04-22T06:49:33.776Z,64.11
2023-04-22T06:50:36.425Z,62.38
2023-04-22T06:51:38.084Z,62.55
2023-04-22T06:52:42.095Z,62.92
2023-04-22T06:53:43.954Z,61.08
2023-04-22T06:54:45.737Z,63.10
2023-04-22T06:55:47.336Z,64.13
2023-04-22T06:56:48.930Z,63.44
2023-04-22T06:57:51.453Z,61.51
2023-04-22T06:58:52.989Z,61.71
2023-04-22T06:59:54.537Z,61.03
2023-04-22T07:00:56.101Z,60.78
2023-04-22T07:01:57.707Z,60.14
2023-04-22T07:02:59.410Z,60.77
2023-04-22T07:04:01.079Z,59.79
2023-04-22T07:05:02.734Z,58.38
2023-04-22T07:06:05.440Z,58.75
2023-04-22T07:07:06.983Z,58.44
2023-04-22T07:08:08.557Z,58.24
2023-04-22T07:09:10.300Z,58.08
2023-04-22T07:10:12.726Z,57.11
2023-04-22T07:11:14.506Z,55.32
2023-04-22T07:12:16.391Z,55.75
2023-04-22T07:13:17.993Z,55.79
2023-04-22T07:14:19.542Z,58.46
2023-04-22T07:15:21.206Z,57.28
2023-04-22T07:16:22.949Z,58.08
2023-04-22T07:17:24.583Z,57.62
2023-04-22T07:18:26.205Z,58.01
2023-04-22T07:19:27.761Z,56.17
2023-04-22T07:20:29.314Z,56.66
2023-04-22T07:21:31.688Z,56.08
2023-04-22T07:22:33.302Z,55.02
2023-04-22T07:23:34.937Z,56.21
2023-04-22T07:24:37.523Z,56.78
2023-04-22T07:25:39.157Z,55.48
2023-04-22T07:26:42.737Z,55.45
2023-04-22T07:27:44.405Z,55.37
2023-04-22T07:28:46.159Z,56.39
2023-04-22T07:29:47.749Z,55.26
2023-04-22T07:30:49.328Z,56.24
2023-04-22T07:31:50.911Z,55.10
2023-04-22T07:32:52.570Z,55.32
2023-04-22T07:33:54.230Z,56.33
2023-04-22T07:34:56.015Z,57.76
2023-04-22T07:35:57.640Z,57.75
2023-04-22T07:36:59.414Z,56.80
2023-04-22T07:38:01.064Z,55.56
2023-04-22T07:39:02.851Z,53.75
2023-04-22T07:40:05.939Z,53.51
2023-04-22T07:41:07.485Z,53.79
2023-04-22T07:42:09.053Z,53.20
2023-04-22T07:43:10.567Z,52.80
2023-04-22T07:44:16.460Z,51.82
2023-04-22T07:45:18.243Z,51.63
2023-04-22T07:46:20.147Z,50.87
2023-04-22T07:47:21.874Z,50.72
2023-04-22T07:48:23.474Z,51.67
2023-04-22T07:49:25.014Z,51.97
2023-04-22T07:50:26.594Z,52.50
2023-04-22T07:51:28.677Z,52.28
2023-04-22T07:52:30.462Z,51.04
2023-04-22T07:53:31.967Z,51.06
2023-04-22T07:54:33.496Z,50.90
2023-04-22T07:55:35.042Z,50.50
2023-04-22T07:56:36.642Z,50.97
2023-04-22T07:57:39.914Z,51.35
2023-04-22T07:58:41.486Z,51.63
2023-04-22T07:59:43.148Z,52.63
2023-04-22T08:00:44.783Z,53.36
2023-04-22T08:01:46.679Z,51.39
2023-04-22T08:02:48.381Z,50.16
2023-04-22T08:03:50.240Z,49.12
2023-04-22T08:04:52.148Z,49.13
2023-04-22T08:05:53.744Z,48.94
2023-04-22T08:06:56.153Z,48.72
2023-04-22T08:07:57.719Z,48.19
2023-04-22T08:08:59.316Z,48.17
2023-04-22T08:10:01.295Z,48.73
2023-04-22T08:11:02.870Z,49.02
2023-04-22T08:12:04.444Z,49.52
2023-04-22T08:13:06.213Z,48.58
2023-04-22T08:14:07.760Z,47.77
2023-04-22T08:15:09.918Z,48.19
2023-04-22T08:16:11.539Z,48.26
2023-04-22T08:17:13.151Z,47.17
2023-04-22T08:18:14.685Z,47.64
2023-04-22T08:19:16.235Z,46.90
2023-04-22T08:20:18.392Z,48.14
2023-04-22T08:21:19.918Z,46.34
2023-04-22T08:22:21.566Z,47.76
2023-04-22T08:23:23.367Z,47.64
2023-04-22T08:24:25.005Z,47.16
2023-04-22T08:25:27.701Z,47.53
2023-04-22T08:26:29.419Z,47.54
2023-04-22T08:27:31.075Z,47.13
2023-04-22T08:28:32.766Z,48.76
2023-04-22T08:29:34.541Z,47.10
2023-04-22T08:30:36.181Z,47.16
2023-04-22T08:31:37.825Z,46.89
2023-04-22T08:32:39.513Z,47.13
2023-04-22T08:33:42.066Z,48.58
2023-04-22T08:34:44.063Z,48.65
2023-04-22T08:35:46.027Z,47.91
2023-04-22T08:36:47.645Z,49.22
2023-04-22T08:37:49.192Z,48.30
2023-04-22T08:38:50.766Z,48.98
2023-04-22T08:39:53.081Z,48.67
2023-04-22T08:40:57.141Z,49.81
2023-04-22T08:41:58.803Z,48.12
2023-04-22T08:43:00.653Z,47.78
2023-04-22T08:44:03.201Z,47.86
2023-04-22T08:45:05.877Z,48.35
2023-04-22T08:46:07.506Z,49.17
2023-04-22T08:47:10.041Z,47.17
2023-04-22T08:48:12.596Z,46.51
2023-04-22T08:49:15.634Z,46.28
2023-04-22T08:50:20.048Z,47.45
2023-04-22T08:51:22.606Z,46.17
2023-04-22T08:52:24.243Z,46.85
2023-04-22T08:53:25.798Z,44.77
2023-04-22T08:54:27.358Z,45.65
2023-04-22T08:55:31.142Z,44.85
2023-04-22T08:56:32.863Z,45.55
2023-04-22T08:57:36.567Z,43.48
2023-04-22T08:58:40.508Z,43.95
2023-04-22T08:59:42.523Z,43.56
2023-04-22T09:00:45.369Z,43.78
2023-04-22T09:01:52.115Z,43.96
2023-04-22T09:02:54.504Z,41.70
2023-04-22T09:03:59.841Z,42.20
2023-04-22T09:05:02.402Z,43.79
2023-04-22T09:06:04.930Z,42.28
2023-04-22T09:07:07.004Z,41.35
2023-04-22T09:08:10.104Z,40.79
2023-04-22T09:09:11.680Z,41.12
2023-04-22T09:10:13.310Z,40.90
2023-04-22T09:11:15.008Z,41.03
2023-04-22T09:12:19.159Z,41.13
2023-04-22T09:13:21.590Z,41.29
2023-04-22T09:14:24.009Z,40.95
2023-04-22T09:15:25.772Z,40.55
2023-04-22T09:16:31.420Z,41.28
2023-04-22T09:17:34.826Z,41.26
2023-04-22T09:18:41.612Z,40.45
2023-04-22T09:19:43.339Z,39.01
2023-04-22T09:20:47.275Z,39.65
2023-04-22T09:21:50.832Z,40.24
2023-04-22T09:22:54.961Z,41.16
2023-04-22T09:23:57.083Z,40.02
2023-04-22T09:24:58.736Z,39.21
2023-04-22T09:26:01.394Z,40.01
2023-04-22T09:27:03.635Z,40.21
2023-04-22T09:28:05.216Z,40.43
2023-04-22T09:29:09.418Z,41.32
2023-04-22T09:30:11.148Z,41.29
2023-04-22T09:31:14.956Z,41.12
2023-04-22T09:32:17.559Z,40.67
2023-04-22T09:33:19.342Z,40.56
2023-04-22T09:34:22.010Z,41.57
2023-04-22T09:35:27.037Z,40.77
2023-04-22T09:36:30.307Z,40.09
2023-04-22T09:37:42.784Z,40.60
2023-04-22T09:38:55.300Z,39.42
2023-04-22T09:39:56.875Z,39.07
2023-04-22T09:40:58.405Z,39.76
2023-04-22T09:41:59.957Z,37.44
2023-04-22T09:43:08.866Z,38.52
2023-04-22T09:44:14.968Z,39.00
2023-04-22T09:45:45.534Z,38.34
2023-04-22T09:46:49.852Z,37.84
2023-04-22T09:47:51.491Z,37.63
2023-04-22T09:48:55.882Z,38.55
2023-04-22T09:49:57.418Z,37.95
2023-04-22T09:50:58.998Z,38.51
2023-04-22T09:52:00.571Z,40.38
2023-04-22T09:53:05.250Z,38.99
2023-04-22T09:54:11.588Z,38.50
2023-04-22T09:55:13.308Z,39.52
2023-04-22T09:56:14.918Z,39.38
2023-04-22T09:57:17.241Z,38.93
2023-04-22T09:58:21.063Z,40.33
2023-04-22T09:59:28.300Z,40.96
2023-04-22T10:00:31.173Z,40.53
2023-04-22T10:01:41.261Z,42.32
2023-04-22T10:02:43.048Z,40.42
2023-04-22T10:03:44.968Z,39.16
2023-04-22T10:04:47.640Z,38.39
2023-04-22T10:05:49.451Z,38.79
2023-04-22T10:06:52.242Z,37.62
2023-04-22T10:07:53.888Z,37.64
2023-04-22T10:08:55.650Z,36.21
2023-04-22T10:09:57.748Z,36.21
2023-04-22T10:10:59.310Z,35.70
2023-04-22T10:12:01.529Z,37.06
2023-04-22T10:13:06.534Z,34.19
2023-04-22T10:14:10.644Z,32.39
2023-04-22T10:15:12.178Z,33.82
2023-04-22T10:16:14.714Z,34.08
2023-04-22T10:17:18.253Z,35.16
2023-04-22T10:18:24.355Z,34.66
2023-04-22T10:19:27.502Z,34.61
2023-04-22T10:20:30.351Z,35.67
2023-04-22T10:21:33.523Z,35.43
2023-04-22T10:22:35.781Z,35.29
2023-04-22T10:23:37.351Z,36.63
2023-04-22T10:24:39.693Z,34.92
2023-04-22T10:25:41.586Z,36.38
2023-04-22T10:26:48.681Z,35.25
2023-04-22T10:28:00.418Z,35.04
2023-04-22T10:29:06.565Z,36.09
2023-04-22T10:30:09.947Z,37.01
2023-04-22T10:31:24.022Z,35.23
2023-04-22T10:32:26.614Z,35.65
2023-04-22T10:33:29.129Z,35.33
2023-04-22T10:34:34.956Z,34.45
2023-04-22T10:35:36.543Z,35.15
2023-04-22T10:36:55.175Z,36.87
2023-04-22T10:37:57.456Z,35.57
2023-04-22T10:38:58.980Z,35.72
2023-04-22T10:40:13.380Z,37.61
2023-04-22T10:41:15.531Z,37.28
2023-04-22T10:42:17.120Z,36.50
2023-04-22T10:43:19.990Z,36.54
2023-04-22T10:44:23.086Z,35.70
2023-04-22T10:45:26.725Z,34.36
2023-04-22T10:46:42.701Z,34.29
2023-04-22T10:47:45.338Z,35.59
2023-04-22T10:48:52.870Z,35.25
2023-04-22T10:50:28.828Z,34.57
2023-04-22T10:51:40.458Z,33.54
2023-04-22T10:52:43.556Z,32.72
2023-04-22T10:53:46.481Z,32.53
2023-04-22T10:54:58.566Z,33.25
2023-04-22T10:56:01.024Z,32.73
2023-04-22T10:57:03.731Z,33.17
2023-04-22T10:58:20.260Z,33.47
2023-04-22T10:59:21.819Z,31.15
2023-04-22T11:00:35.297Z,33.58
2023-04-22T11:01:41.892Z,33.20
2023-04-22T11:02:51.874Z,31.95
2023-04-22T11:03:53.893Z,31.02
2023-04-22T11:05:31.697Z,31.00
2023-04-22T11:06:33.333Z,32.50
2023-04-22T11:07:36.374Z,32.75
2023-04-22T11:08:38.355Z,32.24
2023-04-22T11:09:41.280Z,33.62
2023-04-22T11:10:48.357Z,33.35
2023-04-22T11:11:51.131Z,32.83
2023-04-22T11:12:53.010Z,33.20
2023-04-22T11:13:55.614Z,33.24
2023-04-22T11:14:57.336Z,31.83
2023-04-22T11:15:59.462Z,31.97
2023-04-22T11:17:01.412Z,32.82
2023-04-22T11:18:04.159Z,33.14
2023-04-22T11:19:05.980Z,32.35
2023-04-22T11:20:08.691Z,31.64
2023-04-22T11:21:10.831Z,32.43
2023-04-22T11:22:13.303Z,32.24
2023-04-22T11:23:27.268Z,30.92
2023-04-22T11:24:28.858Z,31.47
2023-04-22T11:25:30.848Z,31.76
2023-04-22T11:26:35.033Z,31.74
2023-04-22T11:27:37.966Z,32.87
2023-04-22T11:28:48.604Z,31.36
2023-04-22T11:30:02.723Z,31.13
2023-04-22T11:31:10.421Z,31.82
2023-04-22T11:32:12.202Z,32.08
2023-04-22T11:33:16.007Z,31.84
2023-04-22T11:34:18.539Z,31.74
2023-04-22T11:35:27.029Z,31.60
2023-04-22T11:36:28.830Z,32.26
2023-04-22T11:37:30.675Z,32.31
2023-04-22T11:38:33.108Z,32.30
2023-04-22T11:39:44.306Z,30.93
2023-04-22T11:40:54.890Z,31.07
2023-04-22T11:41:56.709Z,31.50
2023-04-22T11:42:59.597Z,31.40
2023-04-22T11:44:01.712Z,31.85
2023-04-22T11:45:03.970Z,30.96
2023-04-22T11:46:05.639Z,30.87
2023-04-22T11:47:07.257Z,30.96
2023-04-22T11:48:11.127Z,31.14
2023-04-22T11:49:16.877Z,32.94
2023-04-22T11:50:22.483Z,33.64
2023-04-22T11:51:24.150Z,33.74
2023-04-22T11:52:39.814Z,31.67
2023-04-22T11:53:50.393Z,33.53
2023-04-22T11:54:52.211Z,35.28
2023-04-22T11:55:53.815Z,35.49
2023-04-22T11:56:55.479Z,35.15
2023-04-22T11:58:08.853Z,35.82
2023-04-22T11:59:10.589Z,37.57
2023-04-22T12:00:15.018Z,38.20
2023-04-22T12:01:17.977Z,38.51
2023-04-22T12:02:19.634Z,38.47
2023-04-22T12:03:29.151Z,38.24
2023-04-22T12:04:39.089Z,38.78
2023-04-22T12:05:45.825Z,38.62
2023-04-22T12:06:47.518Z,39.35
2023-04-22T12:07:51.083Z,38.89
2023-04-22T12:08:54.236Z,38.84
2023-04-22T12:09:56.729Z,37.97
2023-04-22T12:11:01.285Z,39.15
2023-04-22T12:12:06.214Z,38.64
2023-04-22T12:13:08.401Z,39.20
2023-04-22T12:14:11.907Z,38.49
2023-04-22T12:15:16.222Z,37.84
2023-04-22T12:16:20.356Z,37.65
2023-04-22T12:17:25.677Z,38.16
2023-04-22T12:18:30.980Z,38.99
2023-04-22T12:19:32.806Z,37.61
2023-04-22T12:20:38.184Z,37.48
2023-04-22T12:21:41.891Z,36.69
2023-04-22T12:22:43.447Z,36.61
2023-04-22T12:23:45.780Z,37.44
2023-04-22T12:24:47.406Z,37.45
2023-04-22T12:25:48.958Z,36.71
2023-04-22T12:26:50.507Z,36.60
2023-04-22T12:27:52.037Z,37.77
2023-04-22T12:28:54.564Z,37.24
2023-04-22T12:29:56.991Z,36.69
2023-04-22T12:30:58.584Z,37.23
2023-04-22T12:32:01.113Z,36.73
2023-04-22T12:33:02.854Z,37.44
2023-04-22T12:34:04.512Z,37.06
2023-04-22T12:35:08.480Z,35.53
2023-04-22T12:36:10.691Z,36.01
2023-04-22T12:37:12.585Z,35.83
2023-04-22T12:38:14.249Z,35.83
2023-04-22T12:39:15.958Z,35.73
2023-04-22T12:40:17.660Z,36.46
2023-04-22T12:41:19.504Z,36.19
2023-04-22T12:42:21.143Z,36.75
2023-04-22T12:43:22.799Z,35.58
2023-04-22T12:44:25.219Z,34.22
2023-04-22T12:45:26.936Z,34.97
2023-04-22T12:46:28.582Z,34.98
2023-04-22T12:47:30.341Z,35.36
2023-04-22T12:48:32.504Z,36.27
2023-04-22T12:49:34.140Z,35.01
2023-04-22T12:50:35.815Z,35.81
2023-04-22T12:51:37.421Z,36.17
2023-04-22T12:52:39.090Z,35.83
2023-04-22T12:53:40.759Z,36.25
2023-04-22T12:54:42.286Z,34.15
2023-04-22T12:55:46.014Z,35.53
2023-04-22T12:56:48.531Z,35.20
2023-04-22T12:57:52.973Z,35.21
2023-04-22T12:58:54.717Z,36.06
2023-04-22T12:59:57.774Z,36.40
2023-04-22T13:00:59.423Z,35.45
2023-04-22T13:02:01.059Z,34.69
2023-04-22T13:03:02.833Z,35.67
2023-04-22T13:04:05.196Z,35.76
2023-04-22T13:05:07.236Z,35.25
2023-04-22T13:06:08.934Z,35.64
2023-04-22T13:07:11.081Z,36.12
2023-04-22T13:08:12.887Z,35.78
2023-04-22T13:09:14.602Z,36.10
2023-04-22T13:10:17.317Z,35.64
2023-04-22T13:11:18.971Z,36.22
2023-04-22T13:12:20.613Z,35.64
2023-04-22T13:13:22.155Z,34.98
2023-04-22T13:14:23.820Z,36.17
2023-04-22T13:15:26.647Z,35.99
2023-04-22T13:16:28.377Z,35.72
2023-04-22T13:17:31.024Z,35.82
2023-04-22T13:18:33.476Z,36.61
2023-04-22T13:19:35.532Z,36.30
2023-04-22T13:20:37.303Z,35.03
2023-04-22T13:21:39.028Z,35.49
2023-04-22T13:22:41.497Z,36.58
2023-04-22T13:23:43.539Z,36.37
2023-04-22T13:24:45.553Z,35.97
2023-04-22T13:25:48.055Z,36.17
2023-04-22T13:26:49.781Z,35.45